createdAt,value
2017-10-19T00:00:45.564Z,80.10
2017-10-19T00:03:22.402Z,80.80
2017-10-19T00:05:54.548Z,80.80
2017-10-19T00:11:03.021Z,81.50
2017-10-19T00:26:23.120Z,82.10
2017-10-19T00:28:56.605Z,81.90
2017-10-19T00:31:26.021Z,81.50
2017-10-19T00:33:52.672Z,81.40
2017-10-19T00:36:20.440Z,81.80
2017-10-19T00:38:48.854Z,81.60
2017-10-19T00:41:18.181Z,82.30
2017-10-19T00:53:28.334Z,81.80
2017-10-19T00:56:01.417Z,82.30
2017-10-19T00:58:34.019Z,81.60
2017-10-19T01:01:04.306Z,81.60
2017-10-19T01:03:39.605Z,82.10
2017-10-19T01:06:09.177Z,82.40
2017-10-19T01:08:43.943Z,81.80
2017-10-19T01:11:11.204Z,82.30
2017-10-19T01:13:38.154Z,82.80
2017-10-19T01:16:06.150Z,82.90
2017-10-19T01:18:36.543Z,81.60
2017-10-19T01:21:05.230Z,81.70
2017-10-19T01:23:32.561Z,81.40
2017-10-19T01:38:51.665Z,83.20
2017-10-19T01:41:21.543Z,83.20
2017-10-19T01:53:31.185Z,81.20
2017-10-19T01:55:58.298Z,81.20
2017-10-19T01:58:30.813Z,81.00
2017-10-19T02:00:58.470Z,81.50
2017-10-19T02:13:06.354Z,82.40
2017-10-19T02:15:39.900Z,82.60
2017-10-19T02:30:59.858Z,83.00
2017-10-19T02:43:10.087Z,82.30
2017-10-19T02:45:38.629Z,82.20
2017-10-19T02:57:46.283Z,82.80
2017-10-19T03:00:14.607Z,82.70
2017-10-19T03:02:43.731Z,82.80
2017-10-19T03:05:12.805Z,82.90
2017-10-19T03:07:43.744Z,83.40
2017-10-19T03:10:16.550Z,83.30
2017-10-19T03:12:46.182Z,83.10
2017-10-19T03:15:15.959Z,83.40
2017-10-19T03:17:45.276Z,83.10
2017-10-19T03:29:54.733Z,82.50
2017-10-19T03:42:01.652Z,83.20
2017-10-19T03:44:29.643Z,82.60
2017-10-19T03:46:58.039Z,82.60
2017-10-19T03:49:26.404Z,83.20
2017-10-19T03:51:54.794Z,83.30
2017-10-19T03:54:21.298Z,81.80
2017-10-19T03:56:48.971Z,82.60
2017-10-19T03:59:17.585Z,83.10
2017-10-19T04:01:47.000Z,83.10
2017-10-19T04:04:13.465Z,82.70
2017-10-19T04:06:44.809Z,83.30
2017-10-19T04:18:52.887Z,83.30
2017-10-19T04:21:20.086Z,83.90
2017-10-19T04:23:46.542Z,84.00
2017-10-19T04:26:13.964Z,83.70
2017-10-19T04:28:43.488Z,83.50
2017-10-19T04:40:51.060Z,82.70
2017-10-19T04:43:19.752Z,83.20
2017-10-19T04:45:47.598Z,82.70
2017-10-19T04:48:17.502Z,82.90
2017-10-19T04:50:44.247Z,83.70
2017-10-19T04:53:13.925Z,83.80
2017-10-19T04:55:42.547Z,83.10
2017-10-19T04:58:10.646Z,83.80
2017-10-19T05:10:17.674Z,83.80
2017-10-19T05:12:46.674Z,83.80
2017-10-19T05:24:55.272Z,82.20
2017-10-19T05:27:23.553Z,82.30
2017-10-19T05:29:52.012Z,82.70
2017-10-19T05:32:21.130Z,83.60
2017-10-19T05:34:50.927Z,83.50
2017-10-19T05:37:19.610Z,83.30
2017-10-19T05:39:47.857Z,83.00
2017-10-19T05:51:57.267Z,83.00
2017-10-19T05:54:28.226Z,82.60
2017-10-19T05:56:55.204Z,82.40
2017-10-19T05:59:22.781Z,82.60
2017-10-19T06:01:49.908Z,82.40
2017-10-19T06:04:19.440Z,82.70
2017-10-19T06:06:48.238Z,82.40
2017-10-19T06:09:15.787Z,82.40
2017-10-19T06:11:44.073Z,82.40
2017-10-19T06:14:14.350Z,81.70
2017-10-19T06:16:45.731Z,81.70
2017-10-19T06:19:13.489Z,81.20
2017-10-19T06:34:34.505Z,81.80
2017-10-19T06:46:43.609Z,82.60
2017-10-19T06:49:12.364Z,82.20
2017-10-19T07:01:19.207Z,82.80
2017-10-19T07:03:46.969Z,81.10
2017-10-19T07:06:15.613Z,81.10
2017-10-19T07:08:43.838Z,81.60
2017-10-19T07:11:11.766Z,80.80
2017-10-19T07:13:39.618Z,81.00
2017-10-19T07:25:46.770Z,78.80
2017-10-19T07:28:18.534Z,79.10
2017-10-19T07:30:46.648Z,78.50
2017-10-19T07:33:16.418Z,78.60
2017-10-19T07:35:43.254Z,79.00
2017-10-19T07:38:13.611Z,79.50
2017-10-19T07:40:42.207Z,79.40
2017-10-19T07:52:50.386Z,77.10
2017-10-19T07:55:22.162Z,75.40
2017-10-19T07:57:51.157Z,73.50
2017-10-19T08:00:22.260Z,70.90
2017-10-19T08:02:52.972Z,69.80
2017-10-19T08:05:23.634Z,68.30
2017-10-19T08:17:33.023Z,68.80
2017-10-19T08:20:03.988Z,64.00
2017-10-19T08:22:36.811Z,64.60
2017-10-19T08:25:08.721Z,64.80
2017-10-19T08:27:39.931Z,63.60
2017-10-19T08:30:09.378Z,62.20
2017-10-19T08:32:40.977Z,61.90
2017-10-19T08:35:11.481Z,62.50
2017-10-19T08:37:48.504Z,61.70
2017-10-19T08:50:00.135Z,62.50
2017-10-19T08:55:03.056Z,59.80
2017-10-19T09:12:55.203Z,57.00
2017-10-19T09:15:25.434Z,55.80
2017-10-19T09:18:01.179Z,56.50
2017-10-19T09:20:33.441Z,56.80
2017-10-19T09:23:05.594Z,55.10
2017-10-19T09:35:16.479Z,55.20
2017-10-19T09:37:44.892Z,55.70
2017-10-19T09:40:16.601Z,54.60
2017-10-19T09:42:46.768Z,54.80
2017-10-19T09:45:20.033Z,54.20
2017-10-19T10:00:36.592Z,52.80
2017-10-19T10:03:08.979Z,52.40
2017-10-19T10:05:43.542Z,52.90
2017-10-19T10:21:02.322Z,50.60
2017-10-19T10:36:25.983Z,51.60
2017-10-19T10:38:53.631Z,49.70
2017-10-19T10:41:23.850Z,49.60
2017-10-19T10:53:33.154Z,50.10
2017-10-19T11:05:43.973Z,48.90
2017-10-19T11:08:14.323Z,49.20
2017-10-19T11:10:44.743Z,48.00
2017-10-19T11:13:14.870Z,47.40
2017-10-19T11:15:44.692Z,46.90
2017-10-19T11:27:58.604Z,47.60
2017-10-19T11:30:27.920Z,45.60
2017-10-19T11:33:01.164Z,46.00
2017-10-19T11:35:30.750Z,47.30
2017-10-19T11:47:42.392Z,53.70
2017-10-19T11:59:52.054Z,53.80
2017-10-19T12:05:00.275Z,52.20
2017-10-19T12:07:30.631Z,51.00
2017-10-19T12:09:57.925Z,51.40
2017-10-19T12:12:26.575Z,50.10
2017-10-19T12:14:54.451Z,49.30
2017-10-19T12:17:23.989Z,48.00
2017-10-19T12:22:28.131Z,48.10
2017-10-19T12:24:57.669Z,47.60
2017-10-19T12:27:27.652Z,48.30
2017-10-19T12:29:57.446Z,47.40
2017-10-19T12:32:27.624Z,46.90
2017-10-19T12:35:10.158Z,46.70
2017-10-19T12:37:39.337Z,46.70
2017-10-19T12:40:06.784Z,47.20
2017-10-19T12:42:34.579Z,48.00
2017-10-19T12:45:10.717Z,48.00
2017-10-19T12:47:39.228Z,46.90
2017-10-19T12:52:45.142Z,47.00
2017-10-19T13:00:35.449Z,47.80
2017-10-19T13:03:12.811Z,47.30
2017-10-19T13:05:42.916Z,47.10
2017-10-19T13:21:04.421Z,47.50
2017-10-19T13:39:03.828Z,48.80
2017-10-19T13:41:33.980Z,48.60
2017-10-19T13:44:10.856Z,49.00
2017-10-19T15:52:27.523Z,59.80
2017-10-19T15:54:57.273Z,60.60
2017-10-19T15:57:28.327Z,59.80
2017-10-19T15:59:58.393Z,60.10
2017-10-19T16:02:30.629Z,61.00
2017-10-19T16:04:58.826Z,61.60
2017-10-19T16:17:06.391Z,61.50
2017-10-19T16:25:01.632Z,64.80
2017-10-19T16:27:30.010Z,66.10
2017-10-19T16:39:38.140Z,67.20
2017-10-19T16:42:07.774Z,68.50
2017-10-19T16:44:35.722Z,68.50
2017-10-19T16:59:22.425Z,69.00
2017-10-19T17:11:38.645Z,68.40
2017-10-19T17:14:07.640Z,69.00
2017-10-19T17:29:30.199Z,69.00
2017-10-19T17:32:00.377Z,69.70
2017-10-19T17:34:37.227Z,69.80
2017-10-19T17:37:13.769Z,70.00
2017-10-19T17:39:53.792Z,69.80
2017-10-19T17:42:23.293Z,69.60
2017-10-19T17:54:38.089Z,70.50
2017-10-19T17:57:07.834Z,71.30
2017-10-19T18:02:26.480Z,70.90
2017-10-19T18:05:00.021Z,71.10
2017-10-19T18:17:09.890Z,72.30
2017-10-19T18:19:36.888Z,73.10
2017-10-19T18:22:04.677Z,72.20
2017-10-19T18:24:34.839Z,72.00
2017-10-19T18:27:04.522Z,71.90
2017-10-19T18:29:32.853Z,71.30
2017-10-19T18:32:02.448Z,71.90
2017-10-19T18:44:13.073Z,71.40
2017-10-19T18:46:44.779Z,71.90
2017-10-19T18:49:11.990Z,71.90
2017-10-19T18:51:43.415Z,71.90
2017-10-19T18:54:15.957Z,72.40
2017-10-19T18:56:44.527Z,72.40
2017-10-19T18:59:21.163Z,72.00
2017-10-19T19:11:35.012Z,71.30
2017-10-19T19:14:05.214Z,71.80
2017-10-19T19:16:42.213Z,71.70
2017-10-19T19:28:57.512Z,73.30
2017-10-19T19:31:28.522Z,73.30
2017-10-19T19:34:01.609Z,73.70
2017-10-19T19:36:35.183Z,73.80
2017-10-19T19:48:54.251Z,73.50
2017-10-19T20:01:05.830Z,72.00
2017-10-19T20:03:35.040Z,72.40
2017-10-19T20:06:04.932Z,72.80
2017-10-19T20:11:15.063Z,74.30
2017-10-19T20:13:43.290Z,74.10
2017-10-19T20:16:14.872Z,74.10
2017-10-19T20:18:45.048Z,73.90
2017-10-19T20:21:13.147Z,74.30
2017-10-19T20:23:45.490Z,75.30
2017-10-19T20:26:16.445Z,75.30
2017-10-19T20:38:26.825Z,75.00
2017-10-19T20:40:57.753Z,74.60
2017-10-19T20:43:30.742Z,74.70
2017-10-19T20:55:38.070Z,74.60
2017-10-19T21:07:46.305Z,74.30
2017-10-19T21:10:14.179Z,74.90
2017-10-19T21:12:43.768Z,74.30
2017-10-19T21:15:12.090Z,74.90
2017-10-19T21:22:54.003Z,74.40
2017-10-19T21:25:30.276Z,74.10
2017-10-19T21:28:04.897Z,74.70
2017-10-19T21:40:19.777Z,74.70
2017-10-19T21:42:48.138Z,75.40
2017-10-19T21:45:19.734Z,75.80
2017-10-19T21:47:48.459Z,75.10
2017-10-19T21:50:30.723Z,75.50
2017-10-19T21:53:03.963Z,75.60
2017-10-19T21:55:34.780Z,75.80
2017-10-19T21:58:09.077Z,75.20
2017-10-19T22:13:31.495Z,76.50
2017-10-19T22:16:03.223Z,76.20
2017-10-19T22:18:33.508Z,76.40
2017-10-19T22:23:50.269Z,75.60
2017-10-19T22:26:20.291Z,76.00
2017-10-19T22:28:49.545Z,75.00
2017-10-19T22:34:08.269Z,75.10
2017-10-19T22:36:40.727Z,75.00
2017-10-19T22:39:12.187Z,75.10
2017-10-19T22:41:41.251Z,76.00
2017-10-19T22:44:18.113Z,76.10
2017-10-19T22:47:00.087Z,76.70
2017-10-19T22:49:38.090Z,76.90
2017-10-19T23:01:46.204Z,76.30
2017-10-19T23:04:22.106Z,76.30
2017-10-19T23:06:52.914Z,76.60
2017-10-19T23:09:21.993Z,77.10
2017-10-19T23:21:32.207Z,77.10
2017-10-19T23:24:08.089Z,77.40
2017-10-19T23:26:40.971Z,76.80
2017-10-19T23:29:13.675Z,79.30
2017-10-19T23:34:20.339Z,77.50
2017-10-19T23:36:48.190Z,78.10
2017-10-19T23:48:54.759Z,77.50
2017-10-19T23:51:21.629Z,77.50
2017-10-19T23:53:48.147Z,77.60
2017-10-19T23:56:14.532Z,77.50
2017-10-19T23:58:42.072Z,77.70
